createdAt,value
2022-09-12T03:59:19.339Z,0.00
2022-09-12T04:00:20.056Z,0.00
2022-09-12T04:01:19.377Z,0.00
2022-09-12T04:02:19.363Z,0.00
2022-09-12T04:03:19.310Z,0.00
2022-09-12T04:04:19.305Z,0.00
2022-09-12T04:05:19.300Z,0.00
2022-09-12T04:06:19.309Z,0.00
2022-09-12T04:07:19.313Z,0.00
2022-09-12T04:08:18.820Z,0.00
2022-09-12T04:09:19.303Z,0.00
2022-09-12T04:10:19.316Z,0.00
2022-09-12T04:11:19.303Z,0.00
2022-09-12T04:12:19.306Z,0.00
2022-09-12T04:13:19.305Z,0.00
2022-09-12T04:14:17.610Z,0.00
2022-09-12T04:15:19.339Z,0.00
2022-09-12T04:16:19.353Z,0.00
2022-09-12T04:17:19.319Z,0.00
2022-09-12T04:18:19.307Z,0.00
2022-09-12T04:19:19.319Z,0.00
2022-09-12T04:20:19.333Z,0.00
2022-09-12T04:21:17.586Z,0.00
2022-09-12T04:22:19.322Z,0.00
2022-09-12T04:23:19.318Z,0.00
2022-09-12T04:24:19.309Z,0.00
2022-09-12T04:25:19.322Z,0.00
2022-09-12T04:26:19.328Z,0.00
2022-09-12T04:27:19.342Z,0.00
2022-09-12T04:28:19.314Z,0.00
2022-09-12T04:29:19.316Z,0.00
2022-09-12T04:30:19.316Z,4.00
2022-09-12T04:31:19.369Z,4.00
2022-09-12T04:32:19.333Z,0.00
2022-09-12T04:33:19.321Z,4.00
2022-09-12T04:34:19.319Z,4.00
2022-09-12T04:35:19.319Z,4.00
2022-09-12T04:36:19.339Z,4.00
2022-09-12T04:37:17.517Z,8.00
2022-09-12T04:38:17.518Z,8.00
2022-09-12T04:39:19.344Z,8.00
2022-09-12T04:40:17.563Z,8.00
2022-09-12T04:41:17.508Z,8.00
2022-09-12T04:42:19.333Z,12.00
2022-09-12T04:43:19.346Z,12.00
2022-09-12T04:44:17.504Z,16.00
2022-09-12T04:45:19.327Z,20.00
2022-09-12T04:46:19.338Z,24.00
2022-09-12T04:47:19.352Z,28.00
2022-09-12T04:48:19.344Z,32.00
2022-09-12T04:49:19.389Z,36.00
2022-09-12T04:50:19.346Z,44.00
2022-09-12T04:51:19.344Z,44.00
2022-09-12T04:52:19.345Z,52.00
2022-09-12T04:53:19.335Z,60.00
2022-09-12T04:54:19.346Z,64.00
2022-09-12T04:55:19.343Z,68.00
2022-09-12T04:56:19.335Z,72.00
2022-09-12T04:57:19.355Z,80.00
2022-09-12T04:58:19.342Z,88.00
2022-09-12T04:59:19.353Z,96.00
2022-09-12T05:00:19.339Z,104.00
2022-09-12T05:01:19.465Z,116.00
2022-09-12T05:02:19.407Z,124.00
2022-09-12T05:03:19.351Z,132.00
2022-09-12T05:04:19.366Z,144.00
2022-09-12T05:05:18.856Z,152.00
2022-09-12T05:06:17.424Z,164.00
2022-09-12T05:07:17.404Z,176.00
2022-09-12T05:08:17.410Z,188.00
2022-09-12T05:09:17.401Z,204.00
2022-09-12T05:10:19.363Z,216.00
2022-09-12T05:11:19.591Z,232.00
2022-09-12T05:12:17.390Z,244.00
2022-09-12T05:13:19.347Z,264.00
2022-09-12T05:14:17.382Z,280.00
2022-09-12T05:15:19.377Z,296.00
2022-09-12T05:16:17.414Z,312.00
2022-09-12T05:17:19.356Z,328.00
2022-09-12T05:18:17.369Z,344.00
2022-09-12T05:19:18.894Z,356.00
2022-09-12T05:20:17.364Z,372.00
2022-09-12T05:21:18.856Z,388.00
2022-09-12T05:22:18.858Z,396.00
2022-09-12T05:23:18.857Z,412.00
2022-09-12T05:24:18.871Z,420.00
2022-09-12T05:25:18.949Z,428.00
2022-09-12T05:26:18.877Z,432.00
2022-09-12T05:27:17.334Z,440.00
2022-09-12T05:28:17.328Z,448.00
2022-09-12T05:29:17.333Z,468.00
2022-09-12T05:30:18.876Z,488.00
2022-09-12T05:31:18.892Z,500.00
2022-09-12T05:32:17.316Z,512.00
2022-09-12T05:33:18.544Z,524.00
2022-09-12T05:34:18.881Z,532.00
2022-09-12T05:35:18.320Z,544.00
2022-09-12T05:36:17.380Z,552.00
2022-09-12T05:37:17.309Z,560.00
2022-09-12T05:38:17.294Z,576.00
2022-09-12T05:39:18.885Z,592.00
2022-09-12T05:40:17.329Z,600.00
2022-09-12T05:41:21.956Z,612.00
2022-09-12T05:42:17.290Z,620.00
2022-09-12T05:43:18.871Z,632.00
2022-09-12T05:44:17.292Z,640.00
2022-09-12T05:45:18.873Z,652.00
2022-09-12T05:46:18.891Z,660.00
2022-09-12T05:47:18.268Z,676.00
2022-09-12T05:48:17.264Z,696.00
2022-09-12T05:49:17.255Z,748.00
2022-09-12T05:50:17.254Z,868.00
2022-09-12T05:51:17.285Z,1024.00
2022-09-12T05:52:18.943Z,1148.00
2022-09-12T05:53:17.241Z,1236.00
2022-09-12T05:54:18.900Z,1300.00
2022-09-12T05:55:17.235Z,1344.00
2022-09-12T05:56:17.244Z,1340.00
2022-09-12T05:57:18.911Z,1392.00
2022-09-12T05:58:17.244Z,1432.00
2022-09-12T05:59:17.238Z,1444.00
2022-09-12T06:00:17.251Z,1536.00
2022-09-12T06:01:17.264Z,1552.00
2022-09-12T06:02:20.062Z,1508.00
2022-09-12T06:03:17.208Z,1532.00
2022-09-12T06:04:17.296Z,1616.00
2022-09-12T06:05:19.158Z,1664.00
2022-09-12T06:06:18.968Z,1580.00
2022-09-12T06:07:18.938Z,1608.00
2022-09-12T06:08:19.022Z,1760.00
2022-09-12T06:09:18.921Z,1968.00
2022-09-12T06:10:18.929Z,2044.00
2022-09-12T06:11:18.907Z,2012.00
2022-09-12T06:12:18.932Z,1992.00
2022-09-12T06:13:19.204Z,2016.00
2022-09-12T06:14:18.905Z,2044.00
2022-09-12T06:15:18.950Z,2024.00
2022-09-12T06:16:19.013Z,2060.00
2022-09-12T06:17:18.938Z,2100.00
2022-09-12T06:18:20.856Z,2148.00
2022-09-12T06:19:19.026Z,2212.00
2022-09-12T06:20:18.922Z,2140.00
2022-09-12T06:21:18.941Z,2044.00
2022-09-12T06:22:18.941Z,2160.00
2022-09-12T06:23:18.998Z,2284.00
2022-09-12T06:24:18.944Z,2380.00
2022-09-12T06:25:18.929Z,2348.00
2022-09-12T06:26:18.916Z,2336.00
2022-09-12T06:27:18.932Z,2336.00
2022-09-12T06:28:18.935Z,2344.00
2022-09-12T06:29:18.929Z,2424.00
2022-09-12T06:30:22.290Z,2572.00
2022-09-12T06:31:18.915Z,2668.00
2022-09-12T06:32:18.917Z,2752.00
2022-09-12T06:33:18.919Z,2628.00
2022-09-12T06:34:18.946Z,2736.00
2022-09-12T06:35:18.920Z,2696.00
2022-09-12T06:36:18.926Z,2672.00
2022-09-12T06:37:18.949Z,2908.00
2022-09-12T06:38:18.430Z,2892.00
2022-09-12T06:39:19.464Z,2740.00
2022-09-12T06:40:17.164Z,3016.00
2022-09-12T06:41:17.095Z,3124.00
2022-09-12T06:42:17.099Z,3008.00
2022-09-12T06:43:17.092Z,3124.00
2022-09-12T06:44:18.434Z,3116.00
2022-09-12T06:45:17.097Z,3268.00
2022-09-12T06:46:18.246Z,3388.00
2022-09-12T06:47:18.940Z,3376.00
2022-09-12T06:48:18.076Z,3388.00
2022-09-12T06:49:18.941Z,3324.00
2022-09-12T06:50:17.083Z,3360.00
2022-09-12T06:51:18.113Z,3284.00
2022-09-12T06:52:18.968Z,3220.00
2022-09-12T06:53:18.067Z,3556.00
2022-09-12T06:54:18.962Z,3628.00
2022-09-12T06:55:20.990Z,3556.00
2022-09-12T06:56:18.961Z,3656.00
2022-09-12T06:57:18.052Z,3604.00
2022-09-12T06:58:18.053Z,3688.00
2022-09-12T06:59:18.951Z,3748.00
2022-09-12T07:00:18.935Z,3812.00
2022-09-12T07:01:19.042Z,3888.00
2022-09-12T07:02:18.097Z,3940.00
2022-09-12T07:03:17.042Z,4004.00
2022-09-12T07:04:17.038Z,4052.00
2022-09-12T07:05:18.952Z,4064.00
2022-09-12T07:06:18.898Z,4112.00
2022-09-12T07:07:18.031Z,4088.00
2022-09-12T07:08:18.463Z,3992.00
2022-09-12T07:09:18.499Z,3980.00
2022-09-12T07:10:22.202Z,4032.00
2022-09-12T07:11:18.487Z,3972.00
2022-09-12T07:12:18.040Z,3816.00
2022-09-12T07:13:18.028Z,3576.00
2022-09-12T07:14:18.460Z,3704.00
2022-09-12T07:15:17.020Z,3740.00
2022-09-12T07:16:19.762Z,3764.00
2022-09-12T07:17:18.951Z,3776.00
2022-09-12T07:18:18.958Z,3756.00
2022-09-12T07:19:18.989Z,3856.00
2022-09-12T07:20:18.973Z,4064.00
2022-09-12T07:21:18.954Z,4208.00
2022-09-12T07:22:18.958Z,4132.00
2022-09-12T07:23:18.960Z,4084.00
2022-09-12T07:24:19.014Z,4036.00
2022-09-12T07:25:18.477Z,3976.00
2022-09-12T07:26:18.958Z,3884.00
2022-09-12T07:27:18.977Z,3852.00
2022-09-12T07:28:20.455Z,3844.00
2022-09-12T07:29:36.631Z,3628.00
2022-09-12T07:30:17.026Z,3480.00
2022-09-12T07:31:19.103Z,3404.00
2022-09-12T07:32:18.981Z,3404.00
2022-09-12T07:33:17.092Z,3436.00
2022-09-12T07:34:17.015Z,3380.00
2022-09-12T07:35:19.006Z,3440.00
2022-09-12T07:36:17.018Z,3476.00
2022-09-12T07:37:17.000Z,3312.00
2022-09-12T07:38:16.992Z,3380.00
2022-09-12T07:39:16.992Z,3612.00
2022-09-12T07:40:18.999Z,3808.00
2022-09-12T07:41:17.029Z,3960.00
2022-09-12T07:42:18.519Z,4016.00
2022-09-12T07:43:17.013Z,3780.00
2022-09-12T07:44:16.992Z,4004.00
2022-09-12T07:45:18.502Z,3976.00
2022-09-12T07:46:17.037Z,3964.00
2022-09-12T07:47:16.995Z,3912.00
2022-09-12T07:48:18.544Z,3896.00
2022-09-12T07:49:17.114Z,3852.00
2022-09-12T07:50:17.060Z,3808.00
2022-09-12T07:51:16.997Z,3868.00
2022-09-12T07:52:18.514Z,3820.00
2022-09-12T07:53:18.526Z,3676.00
2022-09-12T07:54:17.073Z,3584.00
2022-09-12T07:56:16.999Z,3140.00
2022-09-12T07:57:18.050Z,2872.00
2022-09-12T07:58:18.038Z,2704.00
2022-09-12T07:59:30.248Z,2532.00
2022-09-12T08:00:18.494Z,2532.00
2022-09-12T08:01:17.041Z,2512.00
2022-09-12T08:02:18.572Z,2512.00
2022-09-12T08:03:18.506Z,2516.00
2022-09-12T08:04:18.494Z,2512.00
2022-09-12T08:05:18.511Z,2532.00
2022-09-12T08:06:16.969Z,2560.00
2022-09-12T08:07:18.546Z,2588.00
2022-09-12T08:08:16.971Z,2604.00
2022-09-12T08:09:18.010Z,2644.00
2022-09-12T08:10:16.970Z,2688.00
2022-09-12T08:11:16.963Z,2724.00
2022-09-12T08:12:16.968Z,2772.00
2022-09-12T08:13:18.019Z,2804.00
2022-09-12T08:14:18.022Z,2860.00
2022-09-12T08:15:19.038Z,2868.00
2022-09-12T08:16:18.039Z,2900.00
2022-09-12T08:17:16.967Z,2916.00
2022-09-12T08:18:16.971Z,2964.00
2022-09-12T08:19:16.982Z,2992.00
2022-09-12T08:20:18.024Z,2984.00
2022-09-12T08:21:17.980Z,3008.00
2022-09-12T08:22:18.028Z,3008.00
2022-09-12T08:23:17.959Z,3040.00
2022-09-12T08:24:18.511Z,3048.00
2022-09-12T08:25:17.972Z,3060.00
2022-09-12T08:26:18.564Z,3048.00
2022-09-12T08:27:16.956Z,3032.00
2022-09-12T08:28:17.955Z,3032.00
2022-09-12T08:29:18.549Z,3024.00
2022-09-12T08:30:18.530Z,3048.00
2022-09-12T08:31:18.540Z,3076.00
2022-09-12T08:32:18.534Z,3080.00
2022-09-12T08:33:18.528Z,3080.00
2022-09-12T08:34:18.613Z,3076.00
2022-09-12T08:35:18.526Z,3068.00
2022-09-12T08:36:18.540Z,3068.00
2022-09-12T08:37:17.963Z,3092.00
2022-09-12T08:38:18.037Z,3096.00
2022-09-12T08:39:16.951Z,3092.00
2022-09-12T08:40:17.021Z,3064.00
2022-09-12T08:41:16.955Z,3080.00
2022-09-12T08:42:18.546Z,3068.00
2022-09-12T08:43:16.945Z,3068.00
2022-09-12T08:44:16.950Z,3100.00
2022-09-12T08:45:16.951Z,3124.00
2022-09-12T08:46:17.016Z,3164.00
2022-09-12T08:47:18.068Z,3172.00
2022-09-12T08:48:16.953Z,3212.00
2022-09-12T08:49:16.950Z,3224.00
2022-09-12T08:50:17.950Z,3276.00
2022-09-12T08:51:17.962Z,3296.00
2022-09-12T08:52:18.552Z,3328.00
2022-09-12T08:53:18.540Z,3356.00
2022-09-12T08:54:18.545Z,3396.00
2022-09-12T08:55:18.544Z,3456.00
2022-09-12T08:56:18.554Z,3480.00
2022-09-12T08:57:18.539Z,3500.00
2022-09-12T08:58:18.547Z,3504.00
2022-09-12T08:59:17.945Z,3508.00
2022-09-12T09:00:18.571Z,3532.00
2022-09-12T09:01:18.601Z,3556.00
2022-09-12T09:02:18.616Z,3576.00
2022-09-12T09:03:18.563Z,3600.00
2022-09-12T09:04:18.558Z,3576.00
2022-09-12T09:05:18.553Z,3612.00
2022-09-12T09:06:18.563Z,3588.00
2022-09-12T09:07:18.575Z,3564.00
2022-09-12T09:08:18.562Z,3560.00
2022-09-12T09:09:18.570Z,3556.00
2022-09-12T09:10:18.591Z,3508.00
2022-09-12T09:11:18.557Z,3488.00
2022-09-12T09:12:18.576Z,3476.00
2022-09-12T09:13:18.559Z,3452.00
2022-09-12T09:14:18.561Z,3472.00
2022-09-12T09:15:18.580Z,3440.00
2022-09-12T09:16:18.616Z,3420.00
2022-09-12T09:17:18.579Z,3404.00
2022-09-12T09:18:18.562Z,3392.00
2022-09-12T09:19:17.942Z,3372.00
2022-09-12T09:20:18.086Z,3352.00
2022-09-12T09:21:16.935Z,3336.00
2022-09-12T09:22:18.580Z,3316.00
2022-09-12T09:23:18.591Z,3308.00
2022-09-12T09:24:18.580Z,3304.00
2022-09-12T09:25:20.862Z,3304.00
2022-09-12T09:26:18.110Z,3308.00
2022-09-12T09:27:39.172Z,3308.00
2022-09-12T09:28:16.956Z,3308.00
2022-09-12T09:29:16.952Z,3300.00
2022-09-12T09:30:19.748Z,3280.00
2022-09-12T09:31:18.724Z,3272.00
2022-09-12T09:32:18.900Z,3256.00
2022-09-12T09:33:17.005Z,3252.00
2022-09-12T09:34:16.941Z,3256.00
2022-09-12T09:35:17.127Z,3284.00
2022-09-12T09:36:18.933Z,3296.00
2022-09-12T09:37:16.989Z,3312.00
2022-09-12T09:38:18.632Z,3320.00
2022-09-12T09:39:17.076Z,3332.00
2022-09-12T09:40:17.029Z,3324.00
2022-09-12T09:41:16.949Z,3316.00
2022-09-12T09:42:16.945Z,3276.00
2022-09-12T09:43:18.607Z,3236.00
2022-09-12T09:44:18.640Z,3200.00
2022-09-12T09:45:16.943Z,3148.00
2022-09-12T09:46:17.573Z,3088.00
2022-09-12T09:47:41.158Z,3052.00
2022-09-12T09:48:18.660Z,2992.00
2022-09-12T09:49:16.949Z,2932.00
2022-09-12T09:50:18.182Z,2884.00
2022-09-12T09:51:16.965Z,2856.00
2022-09-12T09:52:16.931Z,2836.00
2022-09-12T09:53:18.611Z,2840.00
2022-09-12T09:54:16.944Z,2860.00
2022-09-12T09:55:18.609Z,2892.00
2022-09-12T09:56:19.235Z,2948.00
2022-09-12T09:57:16.939Z,3008.00
2022-09-12T09:58:18.615Z,3084.00
2022-09-12T09:59:16.937Z,3156.00
2022-09-12T10:00:18.637Z,3232.00
2022-09-12T10:01:16.991Z,3304.00
2022-09-12T10:02:19.570Z,3372.00
2022-09-12T10:13:28.520Z,4360.00
2022-09-12T10:14:26.934Z,4356.00
2022-09-12T10:15:26.927Z,4428.00
2022-09-12T10:16:28.495Z,4428.00
2022-09-12T10:17:28.672Z,4524.00
2022-09-12T10:18:27.941Z,4620.00
2022-09-12T10:19:26.918Z,4660.00
2022-09-12T10:20:28.503Z,4700.00
2022-09-12T10:21:28.486Z,4624.00
2022-09-12T10:22:28.484Z,4572.00
2022-09-12T10:23:28.510Z,4380.00
2022-09-12T10:24:28.504Z,4248.00
2022-09-12T10:25:26.930Z,4136.00
2022-09-12T10:26:28.515Z,4076.00
2022-09-12T10:27:26.908Z,3948.00
2022-09-12T10:28:28.012Z,3812.00
2022-09-12T10:29:28.603Z,3612.00
2022-09-12T10:30:28.136Z,3500.00
2022-09-12T10:31:28.533Z,3452.00
2022-09-12T10:32:30.710Z,3424.00
2022-09-12T10:33:28.113Z,3368.00
2022-09-12T10:34:28.154Z,3296.00
2022-09-12T10:35:28.491Z,3224.00
2022-09-12T10:36:28.502Z,3172.00
2022-09-12T10:37:28.749Z,3160.00
2022-09-12T10:38:28.497Z,3168.00
2022-09-12T10:39:28.511Z,3352.00
2022-09-12T10:40:28.499Z,3636.00
2022-09-12T10:41:28.517Z,3936.00
2022-09-12T10:42:28.501Z,4272.00
2022-09-12T10:43:28.514Z,4736.00
2022-09-12T10:44:28.504Z,4656.00
2022-09-12T10:45:28.527Z,5176.00
2022-09-12T10:46:28.585Z,5152.00
2022-09-12T10:47:28.518Z,5272.00
2022-09-12T10:48:26.920Z,5628.00
2022-09-12T10:49:28.547Z,5904.00
2022-09-12T10:50:26.923Z,5924.00
2022-09-12T10:51:26.915Z,5380.00
2022-09-12T10:52:26.922Z,5420.00
2022-09-12T10:53:28.972Z,5204.00
2022-09-12T10:54:28.542Z,5132.00
2022-09-12T10:55:26.935Z,4976.00
2022-09-12T10:57:28.036Z,4964.00
2022-09-12T10:59:26.931Z,4784.00
2022-09-12T11:00:28.083Z,4896.00
2022-09-12T11:01:28.637Z,5116.00
2022-09-12T11:02:27.955Z,5176.00
2022-09-12T11:03:28.530Z,4836.00
2022-09-12T11:04:28.547Z,4488.00
2022-09-12T11:06:28.545Z,4492.00
2022-09-12T11:07:28.530Z,5132.00
2022-09-12T11:08:28.535Z,5332.00
2022-09-12T11:09:28.532Z,4772.00
2022-09-12T11:10:30.987Z,4272.00
2022-09-12T11:11:28.590Z,4508.00
2022-09-12T11:12:26.967Z,4900.00
2022-09-12T11:13:28.648Z,5016.00
2022-09-12T11:14:27.197Z,5188.00
2022-09-12T11:15:27.027Z,5748.00
2022-09-12T11:16:41.086Z,6020.00
2022-09-12T11:17:34.649Z,6192.00
2022-09-12T11:18:28.745Z,5928.00
2022-09-12T11:19:29.378Z,5928.00
2022-09-12T11:20:31.999Z,5920.00
2022-09-12T11:21:28.564Z,5796.00
2022-09-12T11:22:31.779Z,5404.00
2022-09-12T11:23:36.110Z,5284.00
2022-09-12T11:24:27.007Z,5156.00
2022-09-12T11:25:26.984Z,5212.00
2022-09-12T11:26:28.604Z,5408.00
2022-09-12T11:27:27.099Z,5556.00
2022-09-12T11:28:26.994Z,5788.00
2022-09-12T11:29:28.551Z,5876.00
2022-09-12T11:30:28.602Z,6060.00
2022-09-12T11:31:28.549Z,6580.00
2022-09-12T11:32:28.590Z,7120.00
2022-09-12T11:33:28.575Z,7480.00
2022-09-12T11:34:28.564Z,7380.00
2022-09-12T11:35:27.010Z,8456.00
2022-09-12T11:36:28.599Z,8824.00
2022-09-12T11:37:27.007Z,8820.00
2022-09-12T11:38:27.017Z,8380.00
2022-09-12T11:39:28.579Z,8092.00
2022-09-12T11:40:27.065Z,8136.00
2022-09-12T11:41:27.022Z,8268.00
2022-09-12T11:42:28.579Z,7720.00
2022-09-12T11:43:27.028Z,8028.00
2022-09-12T11:44:27.165Z,8628.00
2022-09-12T11:45:27.046Z,8916.00
2022-09-12T11:46:28.619Z,7832.00
2022-09-12T11:47:27.046Z,7808.00
2022-09-12T11:48:27.085Z,8512.00
2022-09-12T11:49:30.486Z,6764.00
2022-09-12T11:51:27.067Z,6184.00
2022-09-12T11:52:27.066Z,5956.00
2022-09-12T11:53:28.604Z,5372.00
2022-09-12T11:54:28.584Z,5844.00
2022-09-12T11:55:28.599Z,6116.00
2022-09-12T11:56:28.581Z,6756.00
2022-09-12T11:57:28.580Z,7128.00
2022-09-12T11:58:29.099Z,6864.00
2022-09-12T11:59:28.598Z,7788.00
2022-09-12T12:00:29.087Z,7736.00
2022-09-12T12:01:29.091Z,7728.00
2022-09-12T12:02:29.166Z,7876.00
2022-09-12T12:03:29.127Z,7992.00
2022-09-12T12:04:29.126Z,8196.00
2022-09-12T12:05:29.111Z,8424.00
2022-09-12T12:06:29.091Z,8328.00
2022-09-12T12:07:29.109Z,8252.00
2022-09-12T12:08:29.104Z,8164.00
2022-09-12T12:09:29.156Z,8352.00
2022-09-12T12:10:29.118Z,8504.00
2022-09-12T12:11:29.097Z,8656.00
2022-09-12T12:12:29.179Z,8820.00
2022-09-12T12:13:29.107Z,8360.00
2022-09-12T12:14:29.119Z,8900.00
2022-09-12T12:15:30.207Z,8972.00
2022-09-12T12:16:29.120Z,8992.00
2022-09-12T12:17:29.127Z,8832.00
2022-09-12T12:18:29.110Z,8808.00
2022-09-12T12:19:28.620Z,9100.00
2022-09-12T12:20:27.233Z,9212.00
2022-09-12T12:21:27.216Z,9076.00
2022-09-12T12:22:28.626Z,9452.00
2022-09-12T12:23:27.226Z,9620.00
2022-09-12T12:24:27.238Z,9900.00
2022-09-12T12:25:29.856Z,10012.00
2022-09-12T12:26:28.246Z,9940.00
2022-09-12T12:27:29.133Z,9912.00
2022-09-12T12:28:27.255Z,10180.00
2022-09-12T12:29:27.262Z,10400.00
2022-09-12T12:30:29.121Z,10684.00
2022-09-12T12:31:27.316Z,11024.00
2022-09-12T12:32:29.136Z,11068.00
2022-09-12T12:33:28.289Z,11032.00
2022-09-12T12:34:28.299Z,11012.00
2022-09-12T12:35:27.301Z,11188.00
2022-09-12T12:36:29.155Z,11352.00
2022-09-12T12:37:29.146Z,11320.00
2022-09-12T12:38:28.325Z,11056.00
2022-09-12T12:39:29.162Z,10952.00
2022-09-12T12:40:28.647Z,10616.00
2022-09-12T12:41:29.136Z,10940.00
2022-09-12T12:42:29.139Z,11072.00
2022-09-12T12:43:29.142Z,11212.00
2022-09-12T12:44:29.140Z,11644.00
2022-09-12T12:45:28.697Z,11700.00
2022-09-12T12:46:28.425Z,11940.00
2022-09-12T12:47:27.391Z,12032.00
2022-09-12T12:48:27.417Z,12268.00
2022-09-12T12:49:27.407Z,12224.00
2022-09-12T12:50:28.675Z,12052.00
2022-09-12T12:51:27.448Z,12120.00
2022-09-12T12:52:27.443Z,12412.00
2022-09-12T12:53:28.674Z,12552.00
2022-09-12T12:54:27.453Z,12756.00
2022-09-12T12:55:29.181Z,12832.00
2022-09-12T12:56:29.149Z,12516.00
2022-09-12T12:57:29.163Z,12744.00
2022-09-12T12:58:29.159Z,12836.00
2022-09-12T12:59:29.171Z,12804.00
2022-09-12T13:00:29.219Z,13820.00
2022-09-12T13:01:29.198Z,17340.00
2022-09-12T13:02:29.198Z,38080.00
2022-09-12T13:03:29.171Z,53344.00
2022-09-12T13:04:29.167Z,48672.00
2022-09-12T13:05:29.189Z,49248.00
2022-09-12T13:06:29.174Z,45344.00
2022-09-12T13:07:28.547Z,38848.00
2022-09-12T13:08:29.198Z,33184.00
2022-09-12T13:09:27.589Z,25760.00
2022-09-12T13:10:29.191Z,17016.00
2022-09-12T13:11:29.172Z,15152.00
2022-09-12T13:12:29.202Z,15048.00
2022-09-12T13:13:27.612Z,14984.00
2022-09-12T13:14:27.623Z,14888.00
2022-09-12T13:15:29.213Z,15424.00
2022-09-12T13:16:27.645Z,15916.00
2022-09-12T13:17:27.643Z,17360.00
2022-09-12T13:18:27.651Z,28672.00
2022-09-12T13:19:28.700Z,40416.00
2022-09-12T13:20:29.847Z,46720.00
2022-09-12T13:21:27.681Z,46688.00
2022-09-12T13:22:27.702Z,48416.00
2022-09-12T13:23:27.724Z,49728.00
2022-09-12T13:24:27.733Z,52192.00
2022-09-12T13:25:29.207Z,50592.00
2022-09-12T13:26:27.723Z,50080.00
2022-09-12T13:27:27.735Z,48640.00
2022-09-12T13:28:29.701Z,51264.00
2022-09-12T13:29:29.713Z,49792.00
2022-09-12T13:30:29.744Z,44576.00
2022-09-12T13:31:29.747Z,37984.00
2022-09-12T13:32:29.712Z,43520.00
2022-09-12T13:33:29.704Z,50592.00
2022-09-12T13:34:29.733Z,50048.00
2022-09-12T13:35:29.716Z,52000.00
2022-09-12T13:36:29.727Z,53696.00
2022-09-12T13:37:29.708Z,53312.00
2022-09-12T13:38:29.737Z,52256.00
2022-09-12T13:39:29.726Z,53664.00
2022-09-12T13:40:29.712Z,53152.00
2022-09-12T13:41:28.882Z,53344.00
2022-09-12T13:42:29.734Z,37792.00
2022-09-12T13:43:29.728Z,37888.00
2022-09-12T13:44:29.713Z,50656.00
2022-09-12T13:45:29.784Z,52064.00
2022-09-12T13:46:29.793Z,51776.00
2022-09-12T13:47:29.736Z,52128.00
2022-09-12T13:48:29.730Z,52032.00
2022-09-12T13:49:29.742Z,51008.00
2022-09-12T13:50:29.719Z,51648.00
2022-09-12T13:51:29.718Z,49664.00
2022-09-12T13:52:29.724Z,45952.00
2022-09-12T13:53:29.730Z,43328.00
2022-09-12T13:54:29.742Z,43520.00
2022-09-12T13:55:28.025Z,46656.00
2022-09-12T13:56:28.029Z,47264.00
2022-09-12T13:57:29.756Z,43808.00
2022-09-12T13:58:28.029Z,46112.00
2022-09-12T13:59:28.041Z,50208.00
2022-09-12T14:00:29.756Z,52928.00
2022-09-12T14:01:28.135Z,54592.00
2022-09-12T14:02:28.134Z,54848.00
2022-09-12T14:03:28.087Z,53984.00
2022-09-12T14:04:29.751Z,53888.00
2022-09-12T14:05:28.097Z,51360.00
2022-09-12T14:06:28.106Z,49824.00
2022-09-12T14:07:28.124Z,48352.00
2022-09-12T14:08:28.128Z,44832.00
2022-09-12T14:09:29.817Z,45760.00
2022-09-12T14:10:28.168Z,47776.00
2022-09-12T14:11:29.757Z,51648.00
2022-09-12T14:12:29.767Z,48256.00
2022-09-12T14:13:28.175Z,45376.00
2022-09-12T14:14:29.759Z,42816.00
2022-09-12T14:15:29.830Z,46752.00
2022-09-12T14:16:29.319Z,47648.00
2022-09-12T14:17:28.215Z,46592.00
2022-09-12T14:18:29.771Z,45760.00
2022-09-12T14:19:29.385Z,43456.00
2022-09-12T14:20:28.246Z,40672.00
2022-09-12T14:21:29.262Z,41024.00
2022-09-12T14:22:29.782Z,42816.00
2022-09-12T14:23:28.275Z,42720.00
2022-09-12T14:24:30.267Z,42432.00
2022-09-12T14:25:30.283Z,41696.00
2022-09-12T14:26:28.310Z,41344.00
2022-09-12T14:27:30.281Z,41984.00
2022-09-12T14:28:28.320Z,41344.00
2022-09-12T14:29:30.281Z,42368.00
2022-09-12T14:30:30.290Z,42720.00
2022-09-12T14:31:30.358Z,40416.00
2022-09-12T14:32:30.307Z,38144.00
2022-09-12T14:33:30.280Z,34080.00
2022-09-12T14:34:30.279Z,32992.00
2022-09-12T14:35:30.318Z,32960.00
2022-09-12T14:36:30.301Z,35488.00
2022-09-12T14:37:30.303Z,35008.00
2022-09-12T14:38:30.299Z,35616.00
2022-09-12T14:39:30.298Z,36032.00
2022-09-12T14:40:30.286Z,36480.00
2022-09-12T14:41:30.289Z,36800.00
2022-09-12T14:42:30.293Z,35744.00
2022-09-12T14:43:30.315Z,33760.00
2022-09-12T14:44:30.302Z,33952.00
2022-09-12T14:45:30.291Z,16016.00
2022-09-12T14:46:30.310Z,14332.00
2022-09-12T14:47:30.362Z,32512.00
2022-09-12T14:48:28.489Z,31776.00
2022-09-12T14:49:30.318Z,32032.00
2022-09-12T14:50:28.509Z,28096.00
2022-09-12T14:51:28.521Z,12968.00
2022-09-12T14:52:28.523Z,24032.00
2022-09-12T14:53:28.530Z,24992.00
2022-09-12T14:54:30.364Z,23328.00
2022-09-12T14:55:28.548Z,22048.00
2022-09-12T14:56:28.556Z,21408.00
2022-09-12T14:57:28.565Z,20160.00
2022-09-12T14:58:28.570Z,20640.00
2022-09-12T14:59:30.346Z,20896.00
2022-09-12T15:00:28.585Z,25664.00
2022-09-12T15:01:30.361Z,25408.00
2022-09-12T15:02:30.314Z,23200.00
2022-09-12T15:03:30.345Z,23392.00
2022-09-12T15:04:30.349Z,20832.00
2022-09-12T15:05:30.350Z,11436.00
2022-09-12T15:06:30.323Z,13912.00
2022-09-12T15:07:30.323Z,15420.00
2022-09-12T15:08:30.352Z,18272.00
2022-09-12T15:09:30.327Z,18848.00
2022-09-12T15:10:30.327Z,19744.00
2022-09-12T15:11:30.344Z,20384.00
2022-09-12T15:12:30.328Z,19072.00
2022-09-12T15:13:30.326Z,19488.00
2022-09-12T15:14:30.345Z,20448.00
2022-09-12T15:15:30.375Z,18656.00
2022-09-12T15:16:30.343Z,16280.00
2022-09-12T15:17:30.333Z,15628.00
2022-09-12T15:18:30.338Z,15528.00
2022-09-12T15:19:30.335Z,14668.00
2022-09-12T15:20:30.338Z,12072.00
2022-09-12T15:21:30.351Z,9852.00
2022-09-12T15:22:30.337Z,9732.00
2022-09-12T15:23:30.339Z,10020.00
2022-09-12T15:24:30.353Z,7680.00
2022-09-12T15:25:30.340Z,6340.00
2022-09-12T15:26:30.357Z,5792.00
2022-09-12T15:27:30.346Z,5716.00
2022-09-12T15:28:30.356Z,5412.00
2022-09-12T15:29:30.374Z,5360.00
2022-09-12T15:30:28.762Z,5376.00
2022-09-12T15:31:28.919Z,5340.00
2022-09-12T15:32:28.765Z,5468.00
2022-09-12T15:33:28.766Z,5552.00
2022-09-12T15:34:30.372Z,5556.00
2022-09-12T15:35:30.366Z,5472.00
2022-09-12T15:36:29.865Z,5424.00
2022-09-12T15:37:28.840Z,5360.00
2022-09-12T15:38:30.372Z,5480.00
2022-09-12T15:39:28.802Z,5556.00
2022-09-12T15:40:28.798Z,5436.00
2022-09-12T15:41:28.802Z,5292.00
2022-09-12T15:42:30.373Z,5120.00
2022-09-12T15:43:28.806Z,4924.00
2022-09-12T15:44:28.829Z,4740.00
2022-09-12T15:45:28.815Z,4596.00
2022-09-12T15:46:30.410Z,4400.00
2022-09-12T15:47:28.849Z,4240.00
2022-09-12T15:48:30.367Z,4192.00
2022-09-12T15:49:29.827Z,4100.00
2022-09-12T15:50:28.831Z,4072.00
2022-09-12T15:51:30.381Z,4140.00
2022-09-12T15:52:30.392Z,4204.00
2022-09-12T15:53:28.839Z,4132.00
2022-09-12T15:54:30.390Z,4000.00
2022-09-12T15:55:28.850Z,3924.00
2022-09-12T15:56:30.392Z,3832.00
2022-09-12T15:57:28.857Z,3732.00
2022-09-12T15:58:30.395Z,3680.00
2022-09-12T15:59:28.871Z,3636.00
2022-09-12T16:12:45.646Z,2852.00
2022-09-12T16:13:43.931Z,2852.00
2022-09-12T16:14:43.925Z,2816.00
2022-09-12T16:15:45.542Z,2752.00
2022-09-12T16:16:45.556Z,2688.00
2022-09-12T16:17:45.535Z,2628.00
2022-09-12T16:18:45.548Z,2576.00
2022-09-12T16:19:45.539Z,2520.00
2022-09-12T16:20:45.524Z,2448.00
2022-09-12T16:21:45.523Z,2384.00
2022-09-12T16:22:45.523Z,2336.00
2022-09-12T16:23:45.525Z,2296.00
2022-09-12T16:24:45.547Z,2256.00
2022-09-12T16:25:45.526Z,2200.00
2022-09-12T16:26:45.537Z,2160.00
2022-09-12T16:27:45.545Z,2124.00
2022-09-12T16:28:45.604Z,2084.00
2022-09-12T16:29:45.534Z,2044.00
2022-09-12T16:30:45.551Z,2000.00
2022-09-12T16:31:45.554Z,1968.00
2022-09-12T16:32:45.547Z,1916.00
2022-09-12T16:33:45.548Z,1864.00